createdAt,value
2018-12-23T00:01:49.441Z,16.47
2018-12-23T00:04:19.563Z,15.07
2018-12-23T00:06:49.515Z,13.77
2018-12-23T00:09:19.489Z,13.80
2018-12-23T00:11:49.496Z,13.37
2018-12-23T00:14:19.518Z,13.23
2018-12-23T00:16:49.542Z,12.80
2018-12-23T00:19:19.560Z,11.33
2018-12-23T00:21:49.508Z,11.60
2018-12-23T00:24:19.571Z,12.13
2018-12-23T00:26:49.590Z,12.17
2018-12-23T00:29:19.506Z,15.77
2018-12-23T00:31:53.114Z,18.20
2018-12-23T00:34:22.921Z,21.07
2018-12-23T00:36:52.836Z,20.07
2018-12-23T00:39:22.850Z,16.17
2018-12-23T00:41:52.873Z,14.97
2018-12-23T00:44:22.776Z,14.87
2018-12-23T00:46:52.799Z,15.03
2018-12-23T00:49:22.700Z,14.20
2018-12-23T00:51:52.700Z,13.53
2018-12-23T00:54:22.846Z,13.67
2018-12-23T00:56:52.720Z,14.17
2018-12-23T00:59:22.561Z,14.47
2018-12-23T01:01:52.590Z,14.10
2018-12-23T01:04:22.597Z,13.37
2018-12-23T01:06:52.619Z,14.07
2018-12-23T01:09:22.841Z,15.10
2018-12-23T01:11:52.781Z,14.20
2018-12-23T01:14:22.728Z,14.33
2018-12-23T01:16:52.779Z,15.40
2018-12-23T01:19:22.718Z,17.60
2018-12-23T01:21:52.800Z,16.87
2018-12-23T01:24:22.887Z,16.10
2018-12-23T01:26:52.794Z,12.53
2018-12-23T01:29:22.748Z,13.50
2018-12-23T01:31:52.758Z,11.80
2018-12-23T01:34:23.077Z,11.77
2018-12-23T01:36:53.024Z,12.00
2018-12-23T01:39:23.228Z,14.63
2018-12-23T01:41:53.228Z,29.57
2018-12-23T01:44:23.156Z,23.77
2018-12-23T01:46:53.021Z,22.57
2018-12-23T01:49:22.978Z,21.47
2018-12-23T01:51:52.997Z,19.27
2018-12-23T01:54:23.011Z,17.57
2018-12-23T01:56:53.034Z,17.47
2018-12-23T01:59:23.040Z,18.70
2018-12-23T02:01:53.074Z,17.80
2018-12-23T02:04:23.068Z,17.80
2018-12-23T02:06:53.182Z,18.93
2018-12-23T02:09:23.094Z,18.70
2018-12-23T02:11:53.112Z,20.13
2018-12-23T02:14:23.125Z,19.70
2018-12-23T02:16:53.199Z,17.27
2018-12-23T02:19:23.266Z,16.43
2018-12-23T02:21:53.300Z,16.63
2018-12-23T02:24:23.250Z,16.30
2018-12-23T02:26:53.084Z,16.23
2018-12-23T02:29:23.076Z,16.67
2018-12-23T02:31:52.986Z,17.20
2018-12-23T02:34:23.213Z,17.87
2018-12-23T02:36:53.271Z,17.70
2018-12-23T02:39:23.230Z,17.43
2018-12-23T02:41:53.080Z,16.17
2018-12-23T02:44:23.108Z,15.93
2018-12-23T02:46:53.009Z,16.17
2018-12-23T02:49:23.014Z,15.83
2018-12-23T02:51:52.961Z,15.50
2018-12-23T02:54:22.968Z,15.30
2018-12-23T02:56:52.972Z,16.00
2018-12-23T02:59:22.997Z,16.17
2018-12-23T03:01:52.961Z,15.97
2018-12-23T03:04:22.850Z,16.30
2018-12-23T03:06:52.825Z,15.57
2018-12-23T03:09:22.774Z,13.97
2018-12-23T03:11:52.761Z,14.20
2018-12-23T03:14:22.887Z,13.10
2018-12-23T03:16:52.887Z,12.77
2018-12-23T03:19:22.858Z,12.20
2018-12-23T03:21:52.709Z,11.57
2018-12-23T03:24:22.661Z,11.37
2018-12-23T03:26:52.646Z,11.13
2018-12-23T03:29:22.666Z,11.73
2018-12-23T03:31:52.887Z,12.60
2018-12-23T03:34:22.900Z,11.87
2018-12-23T03:36:52.821Z,12.40
2018-12-23T03:39:22.834Z,13.03
2018-12-23T03:41:52.855Z,12.93
2018-12-23T03:44:22.866Z,11.97
2018-12-23T03:46:52.767Z,12.43
2018-12-23T03:49:22.796Z,11.87
2018-12-23T03:51:52.741Z,11.63
2018-12-23T03:54:22.714Z,13.47
2018-12-23T03:56:52.851Z,13.87
2018-12-23T03:59:22.775Z,14.00
2018-12-23T04:01:52.868Z,15.00
2018-12-23T04:04:22.893Z,15.10
2018-12-23T04:06:52.800Z,14.90
2018-12-23T04:09:22.911Z,15.03
2018-12-23T04:11:52.934Z,15.57
2018-12-23T04:14:22.942Z,17.03
2018-12-23T04:16:53.061Z,16.03
2018-12-23T04:19:22.924Z,17.60
2018-12-23T04:21:52.933Z,18.33
2018-12-23T04:24:22.907Z,19.07
2018-12-23T04:26:52.974Z,19.43
2018-12-23T04:29:22.931Z,18.23
2018-12-23T04:31:52.843Z,17.37
2018-12-23T04:34:22.879Z,15.23
2018-12-23T04:36:52.780Z,14.73
2018-12-23T04:39:22.860Z,14.80
2018-12-23T04:41:52.916Z,15.00
2018-12-23T04:44:22.907Z,18.37
2018-12-23T04:46:53.355Z,23.20
2018-12-23T04:49:23.321Z,16.60
2018-12-23T04:51:53.265Z,18.53
2018-12-23T04:54:23.287Z,18.77
2018-12-23T04:56:53.309Z,18.77
2018-12-23T04:59:23.323Z,19.60
2018-12-23T05:01:53.294Z,19.77
2018-12-23T05:04:23.316Z,19.70
2018-12-23T05:06:53.260Z,19.60
2018-12-23T05:09:23.295Z,17.87
2018-12-23T05:11:53.294Z,17.67
2018-12-23T05:14:23.217Z,17.13
2018-12-23T05:16:53.227Z,18.37
2018-12-23T05:19:23.150Z,17.67
2018-12-23T05:21:53.268Z,17.47
2018-12-23T05:24:23.275Z,17.40
2018-12-23T05:26:53.151Z,18.07
2018-12-23T05:29:23.038Z,17.87
2018-12-23T05:31:53.016Z,17.57
2018-12-23T05:34:23.017Z,17.17
2018-12-23T05:36:53.176Z,17.43
2018-12-23T05:39:23.368Z,16.67
2018-12-23T05:41:53.385Z,17.53
2018-12-23T05:44:23.297Z,16.60
2018-12-23T05:46:53.625Z,17.17
2018-12-23T05:49:23.520Z,17.90
2018-12-23T05:51:53.424Z,19.30
2018-12-23T05:54:23.390Z,20.13
2018-12-23T05:56:53.261Z,18.30
2018-12-23T05:59:23.237Z,19.50
2018-12-23T06:01:53.239Z,20.20
2018-12-23T06:04:23.099Z,20.17
2018-12-23T06:07:00.727Z,20.13
2018-12-23T06:09:24.913Z,19.30
2018-12-23T06:11:54.847Z,18.70
2018-12-23T06:14:24.917Z,19.60
2018-12-23T06:16:55.123Z,18.17
2018-12-23T06:19:25.097Z,20.07
2018-12-23T06:21:55.050Z,16.60
2018-12-23T06:24:25.003Z,16.77
2018-12-23T06:26:54.899Z,17.03
2018-12-23T06:29:24.782Z,15.67
2018-12-23T06:31:55.464Z,29.50
2018-12-23T06:34:25.763Z,20.50
2018-12-23T06:36:55.974Z,18.73
2018-12-23T06:39:25.987Z,16.93
2018-12-23T06:41:55.939Z,18.20
2018-12-23T06:44:28.194Z,17.53
2018-12-23T06:46:58.289Z,16.77
2018-12-23T06:49:28.360Z,16.83
2018-12-23T06:51:58.623Z,16.47
2018-12-23T06:54:28.638Z,16.70
2018-12-23T06:56:58.554Z,18.93
2018-12-23T06:59:28.461Z,21.53
2018-12-23T07:01:58.275Z,27.93
2018-12-23T07:04:28.285Z,26.70
2018-12-23T07:06:58.240Z,27.27
2018-12-23T07:09:28.122Z,27.97
2018-12-23T07:12:59.361Z,33.20
2018-12-23T07:15:29.678Z,26.10
2018-12-23T07:17:59.693Z,25.63
2018-12-23T07:20:29.728Z,59.30
2018-12-23T07:22:59.715Z,63.20
2018-12-23T07:25:29.754Z,65.03
2018-12-23T07:27:59.659Z,114.33
2018-12-23T07:30:29.691Z,121.30
2018-12-23T07:32:59.582Z,75.00
2018-12-23T07:35:29.525Z,30.47
2018-12-23T07:37:59.525Z,19.50
2018-12-23T07:40:29.584Z,18.10
2018-12-23T07:44:03.443Z,19.30
2018-12-23T07:46:33.616Z,22.57
2018-12-23T07:49:03.482Z,35.87
2018-12-23T07:51:33.505Z,24.90
2018-12-23T07:54:03.513Z,23.57
2018-12-23T07:56:33.527Z,24.17
2018-12-23T07:59:03.645Z,25.20
2018-12-23T08:01:33.595Z,28.00
2018-12-23T08:04:03.458Z,26.10
2018-12-23T08:06:33.488Z,25.07
2018-12-23T08:09:04.842Z,27.00
2018-12-23T08:11:34.847Z,26.73
2018-12-23T08:14:04.733Z,27.73
2018-12-23T08:16:34.769Z,27.70
2018-12-23T08:19:04.783Z,27.70
2018-12-23T08:21:34.629Z,29.50
2018-12-23T08:24:04.528Z,30.40
2018-12-23T08:26:34.825Z,32.37
2018-12-23T08:29:04.748Z,32.37
2018-12-23T08:31:34.724Z,31.93
2018-12-23T08:34:04.777Z,28.87
2018-12-23T08:36:34.676Z,27.60
2018-12-23T08:39:06.680Z,27.63
2018-12-23T08:41:36.766Z,25.07
2018-12-23T08:44:06.824Z,24.30
2018-12-23T08:46:39.247Z,23.60
2018-12-23T08:49:08.753Z,25.40
2018-12-23T08:51:38.585Z,24.53
2018-12-23T08:54:08.580Z,21.57
2018-12-23T08:56:38.509Z,21.63
2018-12-23T08:59:08.506Z,20.83
2018-12-23T09:01:39.042Z,20.50
2018-12-23T09:04:10.832Z,20.30
2018-12-23T09:06:40.806Z,20.13
2018-12-23T09:09:11.039Z,20.60
2018-12-23T09:11:42.939Z,19.77
2018-12-23T09:14:12.872Z,19.23
2018-12-23T09:16:42.773Z,20.60
2018-12-23T09:19:12.829Z,21.50
2018-12-23T09:21:49.810Z,21.50
2018-12-23T09:24:19.708Z,21.77
2018-12-23T09:26:49.842Z,22.90
2018-12-23T09:29:19.856Z,23.43
2018-12-23T09:31:49.773Z,22.67
2018-12-23T09:34:19.715Z,20.57
2018-12-23T09:36:49.705Z,20.33
2018-12-23T09:39:19.677Z,19.47
2018-12-23T09:41:49.629Z,19.17
2018-12-23T09:44:19.578Z,18.40
2018-12-23T09:46:49.658Z,17.43
2018-12-23T09:49:19.677Z,16.93
2018-12-23T09:51:49.629Z,16.80
2018-12-23T09:54:19.607Z,15.73
2018-12-23T09:56:49.774Z,17.63
2018-12-23T09:59:19.731Z,16.97
2018-12-23T10:01:49.754Z,17.37
2018-12-23T10:04:19.662Z,18.30
2018-12-23T10:06:49.787Z,16.43
2018-12-23T10:09:19.706Z,17.67
2018-12-23T10:11:49.700Z,17.47
2018-12-23T10:14:19.734Z,18.53
2018-12-23T10:16:49.849Z,22.63
2018-12-23T10:19:19.850Z,22.77
2018-12-23T10:21:49.664Z,18.83
2018-12-23T10:24:19.794Z,15.67
2018-12-23T10:26:49.807Z,19.07
2018-12-23T10:29:19.809Z,23.77
2018-12-23T10:31:49.835Z,23.93
2018-12-23T10:34:19.791Z,30.67
2018-12-23T10:36:49.803Z,30.43
2018-12-23T10:39:19.821Z,32.77
2018-12-23T10:41:49.776Z,31.80
2018-12-23T10:44:19.902Z,32.13
2018-12-23T10:46:49.888Z,32.40
2018-12-23T10:49:20.040Z,30.10
2018-12-23T10:51:49.999Z,26.23
2018-12-23T10:54:20.035Z,24.37
2018-12-23T10:56:49.884Z,19.77
2018-12-23T10:59:20.196Z,20.40
2018-12-23T11:01:50.135Z,19.70
2018-12-23T11:04:20.136Z,19.63
2018-12-23T11:07:00.869Z,18.53
2018-12-23T11:09:31.043Z,18.63
2018-12-23T11:12:01.247Z,17.83
2018-12-23T11:14:31.330Z,17.37
2018-12-23T11:17:02.519Z,17.33
2018-12-23T11:19:32.546Z,14.70
2018-12-23T11:22:02.613Z,13.77
2018-12-23T11:24:36.056Z,15.10
2018-12-23T11:27:06.236Z,14.03
2018-12-23T11:29:36.182Z,14.57
2018-12-23T11:32:06.293Z,14.93
2018-12-23T11:34:36.255Z,15.93
2018-12-23T11:37:06.270Z,16.77
2018-12-23T11:39:36.338Z,15.33
2018-12-23T11:42:06.455Z,16.07
2018-12-23T11:44:36.472Z,16.87
2018-12-23T11:47:06.577Z,17.77
2018-12-23T11:49:36.708Z,17.70
2018-12-23T11:52:06.750Z,17.13
2018-12-23T11:54:36.839Z,17.03
2018-12-23T11:57:06.950Z,15.43
2018-12-23T11:59:36.909Z,16.47
2018-12-23T12:02:15.063Z,15.00
2018-12-23T12:04:38.944Z,12.87
2018-12-23T12:07:08.910Z,12.33
2018-12-23T12:09:38.872Z,9.73
2018-12-23T12:12:09.297Z,11.27
2018-12-23T12:14:39.220Z,10.27
2018-12-23T12:17:09.340Z,9.97
2018-12-23T12:19:39.338Z,8.73
2018-12-23T12:23:13.242Z,16.13
2018-12-23T12:25:44.381Z,11.83
2018-12-23T12:28:15.378Z,8.30
2018-12-23T12:30:46.566Z,7.47
2018-12-23T12:33:17.684Z,7.33
2018-12-23T12:35:48.670Z,6.53
2018-12-23T12:38:19.793Z,6.27
2018-12-23T12:40:52.304Z,7.30
2018-12-23T12:43:23.658Z,7.47
2018-12-23T12:46:00.534Z,7.80
2018-12-23T12:48:27.727Z,7.63
2018-12-23T12:50:58.794Z,6.43
2018-12-23T12:53:29.889Z,6.90
2018-12-23T12:56:02.598Z,6.27
2018-12-23T12:58:33.862Z,7.43
2018-12-23T13:01:04.899Z,7.43
2018-12-23T13:03:35.909Z,6.00
2018-12-23T13:06:06.829Z,7.00
2018-12-23T13:08:37.971Z,7.33
2018-12-23T13:11:09.154Z,6.37
2018-12-23T13:13:40.209Z,6.10
2018-12-23T13:16:11.402Z,6.10
2018-12-23T13:18:42.432Z,7.97
2018-12-23T13:21:13.698Z,6.23
2018-12-23T13:23:44.907Z,6.37
2018-12-23T13:26:16.038Z,6.67
2018-12-23T13:28:47.161Z,6.97
2018-12-23T13:31:18.239Z,6.40
2018-12-23T13:33:49.373Z,7.07
2018-12-23T13:36:20.420Z,6.73
2018-12-23T13:38:51.412Z,7.43
2018-12-23T13:42:19.670Z,8.90
2018-12-23T13:45:36.918Z,8.20
2018-12-23T13:49:05.010Z,8.77
2018-12-23T13:52:28.412Z,8.30
2018-12-23T13:55:47.188Z,7.87
2018-12-23T13:59:08.152Z,8.03
2018-12-23T14:02:24.739Z,7.70
2018-12-23T14:05:25.828Z,8.00
2018-12-23T14:08:39.161Z,7.97
2018-12-23T14:11:56.574Z,9.27
2018-12-23T14:14:27.579Z,9.87
2018-12-23T14:16:58.788Z,8.17
2018-12-23T14:19:29.958Z,8.53
2018-12-23T14:22:01.020Z,8.27
2018-12-23T14:24:32.150Z,9.70
2018-12-23T14:27:03.513Z,9.33
2018-12-23T14:29:34.544Z,8.80
2018-12-23T14:32:05.452Z,8.37
2018-12-23T14:34:36.511Z,8.13
2018-12-23T14:37:07.613Z,8.43
2018-12-23T14:39:38.718Z,7.33
2018-12-23T14:42:09.603Z,7.13
2018-12-23T14:44:40.777Z,8.43
2018-12-23T14:47:11.769Z,10.00
2018-12-23T14:49:42.855Z,7.70
2018-12-23T14:52:14.108Z,7.80
2018-12-23T14:54:45.084Z,6.67
2018-12-23T14:57:16.133Z,7.13
2018-12-23T14:59:47.189Z,7.60
2018-12-23T15:02:18.365Z,7.70
2018-12-23T15:04:49.322Z,8.87
2018-12-23T15:07:20.332Z,7.60
2018-12-23T15:09:51.475Z,8.27
2018-12-23T15:12:22.570Z,8.00
2018-12-23T15:14:53.504Z,8.83
2018-12-23T15:17:24.590Z,9.23
2018-12-23T15:19:55.672Z,9.27
2018-12-23T15:22:26.620Z,9.40
2018-12-23T15:24:57.870Z,9.00
2018-12-23T15:27:29.259Z,9.60
2018-12-23T15:30:00.289Z,8.13
2018-12-23T15:32:31.540Z,7.10
2018-12-23T15:35:03.118Z,6.43
2018-12-23T15:37:34.148Z,7.93
2018-12-23T15:40:05.404Z,7.17
2018-12-23T15:42:36.519Z,7.33
2018-12-23T15:45:07.844Z,7.73
2018-12-23T15:47:39.063Z,8.30
2018-12-23T15:50:10.199Z,10.57
2018-12-23T15:52:41.264Z,12.93
2018-12-23T15:55:12.339Z,11.73
2018-12-23T15:57:43.430Z,10.80
2018-12-23T16:00:14.524Z,10.80
2018-12-23T16:02:45.604Z,8.63
2018-12-23T16:05:16.594Z,10.33
2018-12-23T16:07:47.724Z,11.93
2018-12-23T16:10:18.924Z,13.17
2018-12-23T16:12:50.093Z,11.00
2018-12-23T16:15:21.376Z,9.17
2018-12-23T16:17:52.369Z,7.40
2018-12-23T16:20:24.029Z,7.00
2018-12-23T16:22:55.040Z,7.73
2018-12-23T16:25:25.967Z,7.00
2018-12-23T16:27:56.958Z,7.23
2018-12-23T16:30:28.059Z,6.87
2018-12-23T16:32:59.046Z,6.40
2018-12-23T16:35:30.009Z,6.70
2018-12-23T16:38:01.161Z,6.30
2018-12-23T16:40:32.208Z,6.47
2018-12-23T16:43:03.368Z,5.87
2018-12-23T16:45:34.500Z,6.30
2018-12-23T16:48:05.754Z,6.13
2018-12-23T16:50:36.791Z,6.23
2018-12-23T16:53:07.749Z,6.70
2018-12-23T16:55:39.004Z,6.10
2018-12-23T16:58:10.050Z,6.70
2018-12-23T17:00:41.206Z,6.53
2018-12-23T17:03:12.075Z,6.20
2018-12-23T17:05:43.170Z,6.37
2018-12-23T17:08:14.288Z,6.77
2018-12-23T17:10:45.358Z,6.73
2018-12-23T17:13:16.614Z,6.73
2018-12-23T17:15:47.742Z,6.77
2018-12-23T17:18:18.851Z,7.40
2018-12-23T17:20:49.939Z,6.83
2018-12-23T17:23:21.068Z,8.13
2018-12-23T17:25:52.075Z,7.30
2018-12-23T17:28:23.110Z,5.90
2018-12-23T17:30:54.179Z,6.10
2018-12-23T17:33:25.228Z,5.70
2018-12-23T17:35:56.928Z,6.03
2018-12-23T17:38:28.124Z,5.77
2018-12-23T17:40:59.194Z,5.17
2018-12-23T17:43:30.530Z,6.27
2018-12-23T17:46:01.808Z,5.77
2018-12-23T17:48:32.814Z,5.20
2018-12-23T17:51:04.014Z,5.67
2018-12-23T17:53:35.134Z,5.40
2018-12-23T17:56:06.295Z,5.77
2018-12-23T17:58:37.406Z,5.60
2018-12-23T18:01:08.618Z,5.47
2018-12-23T18:03:39.855Z,4.90
2018-12-23T18:06:10.929Z,5.00
2018-12-23T18:08:42.109Z,5.20
2018-12-23T18:11:13.275Z,5.43
2018-12-23T18:13:44.358Z,5.43
2018-12-23T18:16:15.726Z,5.13
2018-12-23T18:18:46.766Z,5.10
2018-12-23T18:21:17.986Z,4.57
2018-12-23T18:23:49.191Z,10.67
2018-12-23T18:26:26.863Z,10.10
2018-12-23T18:29:01.141Z,6.97
2018-12-23T18:31:32.099Z,5.30
2018-12-23T18:34:03.584Z,8.27
2018-12-23T18:36:34.659Z,10.07
2018-12-23T18:39:07.909Z,14.27
2018-12-23T18:41:39.302Z,5.17
2018-12-23T18:44:10.282Z,4.57
2018-12-23T18:46:41.405Z,5.07
2018-12-23T18:49:12.465Z,5.60
2018-12-23T18:51:43.985Z,5.77
2018-12-23T18:54:15.163Z,5.13
2018-12-23T18:56:49.351Z,4.90
2018-12-23T18:59:24.722Z,5.50
2018-12-23T19:02:10.620Z,7.60
2018-12-23T19:04:41.795Z,11.70
2018-12-23T19:07:15.524Z,11.67
2018-12-23T19:10:03.520Z,8.97
2018-12-23T19:13:23.923Z,20.83
2018-12-23T19:16:32.347Z,14.97
2018-12-23T19:19:47.551Z,15.33
2018-12-23T19:22:50.865Z,8.90
2018-12-23T19:26:07.395Z,8.60
2018-12-23T19:28:50.105Z,7.83
2018-12-23T19:32:18.281Z,7.70
2018-12-23T19:35:46.391Z,7.60
2018-12-23T19:39:02.005Z,7.17
2018-12-23T19:42:30.261Z,7.57
2018-12-23T19:45:45.136Z,7.17
2018-12-23T19:48:42.131Z,8.50
2018-12-23T19:52:08.300Z,8.30
2018-12-23T19:55:15.654Z,9.17
2018-12-23T19:58:34.715Z,9.27
2018-12-23T20:01:38.314Z,10.57
2018-12-23T20:04:52.606Z,9.40
2018-12-23T20:08:08.207Z,10.33
2018-12-23T20:11:22.254Z,9.17
2018-12-23T20:14:50.320Z,8.80
2018-12-23T20:18:18.580Z,9.80
2018-12-23T20:21:36.358Z,9.00
2018-12-23T20:24:41.054Z,10.80
2018-12-23T20:28:01.438Z,9.33
2018-12-23T20:31:22.999Z,10.37
2018-12-23T20:34:51.175Z,8.27
2018-12-23T20:38:13.910Z,9.93
2018-12-23T20:41:35.352Z,10.37
2018-12-23T20:44:53.555Z,10.40
2018-12-23T20:48:07.700Z,10.23
2018-12-23T20:51:35.897Z,9.73
2018-12-23T20:54:55.350Z,10.43
2018-12-23T20:57:58.657Z,11.60
2018-12-23T21:01:22.465Z,16.57
2018-12-23T21:04:50.603Z,13.23
2018-12-23T21:08:03.816Z,13.30
2018-12-23T21:11:30.032Z,12.93
2018-12-23T21:14:44.162Z,13.00
2018-12-23T21:18:07.442Z,12.80
2018-12-23T21:21:18.445Z,12.23
2018-12-23T21:24:35.229Z,11.67
2018-12-23T21:28:00.689Z,11.67
2018-12-23T21:31:36.752Z,12.97
2018-12-23T21:34:40.656Z,11.83
2018-12-23T21:38:12.347Z,12.03
2018-12-23T21:41:38.708Z,12.30
2018-12-23T21:45:05.798Z,15.23
2018-12-23T21:48:33.884Z,21.70
2018-12-23T21:51:56.077Z,22.83
2018-12-23T21:55:24.173Z,14.67
2018-12-23T21:58:48.250Z,15.47
2018-12-23T22:02:09.642Z,16.73
2018-12-23T22:05:37.810Z,16.10
2018-12-23T22:09:05.994Z,18.23
2018-12-23T22:12:28.882Z,17.23
2018-12-23T22:14:59.971Z,12.67
2018-12-23T22:17:31.112Z,12.40
2018-12-23T22:20:02.214Z,11.63
2018-12-23T22:22:33.326Z,12.50
2018-12-23T22:25:04.383Z,12.90
2018-12-23T22:27:35.753Z,12.83
2018-12-23T22:30:07.533Z,12.03
2018-12-23T22:32:38.683Z,11.20
2018-12-23T22:35:10.042Z,11.23
2018-12-23T22:37:41.181Z,12.27
2018-12-23T22:40:12.332Z,13.57
2018-12-23T22:42:43.462Z,12.33
2018-12-23T22:45:14.624Z,13.53
2018-12-23T22:47:49.439Z,13.90
2018-12-23T22:50:20.492Z,13.53
2018-12-23T22:52:51.713Z,15.37
2018-12-23T22:55:22.945Z,20.13
2018-12-23T22:57:54.252Z,16.60
2018-12-23T23:00:31.722Z,17.87
2018-12-23T23:03:08.952Z,20.87
2018-12-23T23:05:35.524Z,15.23
2018-12-23T23:08:06.622Z,14.50
2018-12-23T23:10:37.683Z,14.63
2018-12-23T23:13:08.807Z,14.83
2018-12-23T23:15:39.994Z,15.30
2018-12-23T23:18:11.024Z,15.13
2018-12-23T23:20:41.919Z,14.97
2018-12-23T23:23:13.043Z,15.03
2018-12-23T23:25:44.155Z,17.13
2018-12-23T23:28:15.352Z,22.30
2018-12-23T23:30:46.613Z,18.23
2018-12-23T23:33:17.660Z,17.60
2018-12-23T23:35:48.743Z,16.97
2018-12-23T23:38:19.761Z,16.43
2018-12-23T23:40:51.042Z,17.63
2018-12-23T23:43:24.291Z,17.37
2018-12-23T23:45:55.624Z,16.80
2018-12-23T23:48:26.559Z,16.70
2018-12-23T23:50:58.445Z,18.33
2018-12-23T23:53:30.024Z,18.80
2018-12-23T23:56:01.294Z,23.70
2018-12-23T23:58:32.312Z,25.57
